Terminal Aerodrome Forecast
Issued by NWS

Home | Current Version | Previous Version | Graphics & Text | Print | Product List | Glossary On
Versions: 1 2 3 4 5 6 7 8 9 10 11 12 13 14 15 16
000
FTUS45 KGGW 162000 AAA
TAFOLF
TAF AMD
KOLF 162048Z 1621/1718 07008KT P6SM OVC021
     FM162100 09009KT P6SM OVC030
     FM170300 08011KT P6SM BKN040
     FM170900 09010KT P6SM OVC007=

USA.gov is the U.S. government's official web portal to all federal, state and local government web resources and services.